sensor_id;sensor_type;location;lat;lon;timestamp;P1;durP1;ratioP1;P2;durP2;ratioP2
58982;SDS011;44771;49.982;8.560;2023-02-15T00:01:20;101.50;;;35.42;;
58982;SDS011;44771;49.982;8.560;2023-02-15T00:06:22;113.28;;;35.15;;
58982;SDS011;44771;49.982;8.560;2023-02-15T00:11:24;92.25;;;33.25;;
58982;SDS011;44771;49.982;8.560;2023-02-15T00:16:27;85.82;;;32.78;;
58982;SDS011;44771;49.982;8.560;2023-02-15T00:21:29;83.15;;;31.00;;
58982;SDS011;44771;49.982;8.560;2023-02-15T00:26:32;72.47;;;30.58;;
58982;SDS011;44771;49.982;8.560;2023-02-15T00:31:35;70.43;;;30.33;;
58982;SDS011;44771;49.982;8.560;2023-02-15T00:36:38;61.75;;;28.52;;
58982;SDS011;44771;49.982;8.560;2023-02-15T00:41:40;68.15;;;31.15;;
58982;SDS011;44771;49.982;8.560;2023-02-15T00:46:43;66.53;;;29.15;;
58982;SDS011;44771;49.982;8.560;2023-02-15T00:51:45;66.07;;;30.00;;
58982;SDS011;44771;49.982;8.560;2023-02-15T00:56:46;82.47;;;32.55;;
58982;SDS011;44771;49.982;8.560;2023-02-15T01:01:49;72.05;;;30.42;;
58982;SDS011;44771;49.982;8.560;2023-02-15T01:06:51;72.65;;;32.95;;
58982;SDS011;44771;49.982;8.560;2023-02-15T01:11:53;95.68;;;34.17;;
58982;SDS011;44771;49.982;8.560;2023-02-15T01:16:56;74.03;;;31.73;;
58982;SDS011;44771;49.982;8.560;2023-02-15T01:21:58;71.85;;;31.75;;
58982;SDS011;44771;49.982;8.560;2023-02-15T01:27:00;96.05;;;33.05;;
58982;SDS011;44771;49.982;8.560;2023-02-15T01:32:03;83.45;;;35.30;;
58982;SDS011;44771;49.982;8.560;2023-02-15T01:37:05;70.32;;;30.67;;
58982;SDS011;44771;49.982;8.560;2023-02-15T01:42:07;77.75;;;33.22;;
58982;SDS011;44771;49.982;8.560;2023-02-15T01:47:13;54.87;;;25.60;;
58982;SDS011;44771;49.982;8.560;2023-02-15T01:52:17;78.32;;;30.83;;
58982;SDS011;44771;49.982;8.560;2023-02-15T01:57:22;65.28;;;31.77;;
58982;SDS011;44771;49.982;8.560;2023-02-15T02:02:27;76.60;;;31.48;;
58982;SDS011;44771;49.982;8.560;2023-02-15T02:07:29;60.67;;;29.05;;
58982;SDS011;44771;49.982;8.560;2023-02-15T02:12:36;76.05;;;30.73;;
58982;SDS011;44771;49.982;8.560;2023-02-15T02:17:44;53.23;;;26.63;;
58982;SDS011;44771;49.982;8.560;2023-02-15T02:23:00;66.62;;;29.98;;
58982;SDS011;44771;49.982;8.560;2023-02-15T02:28:18;75.80;;;32.00;;
58982;SDS011;44771;49.982;8.560;2023-02-15T02:33:41;74.55;;;31.25;;
58982;SDS011;44771;49.982;8.560;2023-02-15T02:38:53;75.05;;;30.33;;
58982;SDS011;44771;49.982;8.560;2023-02-15T02:44:05;70.22;;;31.90;;
58982;SDS011;44771;49.982;8.560;2023-02-15T02:49:15;74.80;;;31.40;;
58982;SDS011;44771;49.982;8.560;2023-02-15T02:54:16;63.13;;;30.05;;
58982;SDS011;44771;49.982;8.560;2023-02-15T02:59:19;79.78;;;32.03;;
58982;SDS011;44771;49.982;8.560;2023-02-15T03:04:27;79.35;;;31.20;;
58982;SDS011;44771;49.982;8.560;2023-02-15T03:09:33;84.65;;;33.60;;
58982;SDS011;44771;49.982;8.560;2023-02-15T03:14:38;78.12;;;31.25;;
58982;SDS011;44771;49.982;8.560;2023-02-15T03:19:42;72.37;;;32.55;;
58982;SDS011;44771;49.982;8.560;2023-02-15T03:24:47;80.38;;;33.35;;
58982;SDS011;44771;49.982;8.560;2023-02-15T03:29:55;72.35;;;33.33;;
58982;SDS011;44771;49.982;8.560;2023-02-15T03:35:01;75.90;;;31.60;;
58982;SDS011;44771;49.982;8.560;2023-02-15T03:40:03;82.65;;;33.10;;
58982;SDS011;44771;49.982;8.560;2023-02-15T03:45:11;80.00;;;33.58;;
58982;SDS011;44771;49.982;8.560;2023-02-15T03:50:20;76.53;;;31.35;;
58982;SDS011;44771;49.982;8.560;2023-02-15T03:55:27;77.47;;;30.98;;
58982;SDS011;44771;49.982;8.560;2023-02-15T04:00:29;91.28;;;34.88;;
58982;SDS011;44771;49.982;8.560;2023-02-15T04:05:37;103.97;;;37.47;;
58982;SDS011;44771;49.982;8.560;2023-02-15T04:10:40;112.97;;;35.88;;
58982;SDS011;44771;49.982;8.560;2023-02-15T04:15:42;117.53;;;39.83;;
58982;SDS011;44771;49.982;8.560;2023-02-15T04:20:45;94.87;;;34.30;;
58982;SDS011;44771;49.982;8.560;2023-02-15T04:25:47;79.45;;;33.50;;
58982;SDS011;44771;49.982;8.560;2023-02-15T04:30:49;85.68;;;34.53;;
58982;SDS011;44771;49.982;8.560;2023-02-15T04:35:52;81.25;;;33.83;;
58982;SDS011;44771;49.982;8.560;2023-02-15T04:40:54;95.65;;;34.20;;
58982;SDS011;44771;49.982;8.560;2023-02-15T04:45:55;80.90;;;33.28;;
58982;SDS011;44771;49.982;8.560;2023-02-15T04:50:59;75.90;;;32.33;;
58982;SDS011;44771;49.982;8.560;2023-02-15T04:56:06;84.60;;;32.95;;
58982;SDS011;44771;49.982;8.560;2023-02-15T05:01:08;76.07;;;31.73;;
58982;SDS011;44771;49.982;8.560;2023-02-15T05:06:12;79.55;;;32.45;;
58982;SDS011;44771;49.982;8.560;2023-02-15T05:11:13;78.25;;;30.73;;
58982;SDS011;44771;49.982;8.560;2023-02-15T05:16:15;85.20;;;33.78;;
58982;SDS011;44771;49.982;8.560;2023-02-15T05:21:19;83.85;;;33.00;;
58982;SDS011;44771;49.982;8.560;2023-02-15T05:26:21;90.53;;;33.67;;
58982;SDS011;44771;49.982;8.560;2023-02-15T05:31:24;82.50;;;33.33;;
58982;SDS011;44771;49.982;8.560;2023-02-15T05:36:27;79.78;;;31.40;;
58982;SDS011;44771;49.982;8.560;2023-02-15T05:41:29;80.50;;;32.95;;
58982;SDS011;44771;49.982;8.560;2023-02-15T05:46:31;68.90;;;29.40;;
58982;SDS011;44771;49.982;8.560;2023-02-15T05:51:34;74.35;;;30.60;;
58982;SDS011;44771;49.982;8.560;2023-02-15T05:56:39;72.28;;;30.00;;
58982;SDS011;44771;49.982;8.560;2023-02-15T06:01:41;65.50;;;27.60;;
58982;SDS011;44771;49.982;8.560;2023-02-15T06:07:04;62.17;;;27.80;;
58982;SDS011;44771;49.982;8.560;2023-02-15T06:12:36;60.08;;;26.65;;
58982;SDS011;44771;49.982;8.560;2023-02-15T06:17:37;59.95;;;27.77;;
58982;SDS011;44771;49.982;8.560;2023-02-15T06:22:42;60.15;;;28.23;;
58982;SDS011;44771;49.982;8.560;2023-02-15T06:27:44;63.05;;;27.83;;
58982;SDS011;44771;49.982;8.560;2023-02-15T06:32:46;58.28;;;26.95;;
58982;SDS011;44771;49.982;8.560;2023-02-15T06:37:49;73.32;;;28.50;;
58982;SDS011;44771;49.982;8.560;2023-02-15T06:42:51;67.53;;;28.20;;
58982;SDS011;44771;49.982;8.560;2023-02-15T06:47:52;63.40;;;27.13;;
58982;SDS011;44771;49.982;8.560;2023-02-15T06:52:59;56.33;;;27.02;;
58982;SDS011;44771;49.982;8.560;2023-02-15T06:58:01;56.42;;;26.65;;
58982;SDS011;44771;49.982;8.560;2023-02-15T07:03:02;60.47;;;26.70;;
58982;SDS011;44771;49.982;8.560;2023-02-15T07:08:06;65.87;;;29.05;;
58982;SDS011;44771;49.982;8.560;2023-02-15T07:13:07;68.40;;;28.33;;
58982;SDS011;44771;49.982;8.560;2023-02-15T07:18:09;61.45;;;27.92;;
58982;SDS011;44771;49.982;8.560;2023-02-15T07:23:12;67.82;;;27.48;;
58982;SDS011;44771;49.982;8.560;2023-02-15T07:28:14;68.30;;;28.45;;
58982;SDS011;44771;49.982;8.560;2023-02-15T07:33:16;60.50;;;27.85;;
58982;SDS011;44771;49.982;8.560;2023-02-15T07:38:19;59.50;;;27.83;;
58982;SDS011;44771;49.982;8.560;2023-02-15T07:43:21;48.63;;;23.12;;
58982;SDS011;44771;49.982;8.560;2023-02-15T07:48:23;66.25;;;27.00;;
58982;SDS011;44771;49.982;8.560;2023-02-15T07:53:26;56.63;;;26.30;;
58982;SDS011;44771;49.982;8.560;2023-02-15T07:58:29;47.03;;;25.00;;
58982;SDS011;44771;49.982;8.560;2023-02-15T08:03:30;50.10;;;25.02;;
58982;SDS011;44771;49.982;8.560;2023-02-15T08:08:34;51.03;;;25.88;;
58982;SDS011;44771;49.982;8.560;2023-02-15T08:13:36;54.42;;;24.08;;
58982;SDS011;44771;49.982;8.560;2023-02-15T08:18:37;52.17;;;25.58;;
58982;SDS011;44771;49.982;8.560;2023-02-15T08:28:56;43.55;;;24.35;;
58982;SDS011;44771;49.982;8.560;2023-02-15T08:34:08;48.28;;;24.92;;
58982;SDS011;44771;49.982;8.560;2023-02-15T08:39:19;54.25;;;26.35;;
58982;SDS011;44771;49.982;8.560;2023-02-15T08:44:21;39.50;;;23.23;;
58982;SDS011;44771;49.982;8.560;2023-02-15T08:49:23;42.95;;;23.90;;
58982;SDS011;44771;49.982;8.560;2023-02-15T08:54:26;43.08;;;24.75;;
58982;SDS011;44771;49.982;8.560;2023-02-15T08:59:28;49.67;;;25.65;;
58982;SDS011;44771;49.982;8.560;2023-02-15T09:04:30;44.63;;;24.00;;
58982;SDS011;44771;49.982;8.560;2023-02-15T09:09:34;46.63;;;23.77;;
58982;SDS011;44771;49.982;8.560;2023-02-15T09:14:36;44.65;;;25.48;;
58982;SDS011;44771;49.982;8.560;2023-02-15T09:19:37;53.63;;;23.87;;
58982;SDS011;44771;49.982;8.560;2023-02-15T09:24:41;60.47;;;27.25;;
58982;SDS011;44771;49.982;8.560;2023-02-15T09:29:42;44.35;;;24.12;;
58982;SDS011;44771;49.982;8.560;2023-02-15T09:34:44;64.60;;;26.60;;
58982;SDS011;44771;49.982;8.560;2023-02-15T09:39:47;52.13;;;26.50;;
58982;SDS011;44771;49.982;8.560;2023-02-15T09:44:54;69.12;;;28.38;;
58982;SDS011;44771;49.982;8.560;2023-02-15T09:50:06;61.50;;;28.48;;
58982;SDS011;44771;49.982;8.560;2023-02-15T09:55:28;70.22;;;30.65;;
58982;SDS011;44771;49.982;8.560;2023-02-15T10:00:43;64.57;;;29.92;;
58982;SDS011;44771;49.982;8.560;2023-02-15T10:05:59;78.12;;;32.55;;
58982;SDS011;44771;49.982;8.560;2023-02-15T10:11:14;83.07;;;32.38;;
58982;SDS011;44771;49.982;8.560;2023-02-15T10:16:19;77.93;;;30.30;;
58982;SDS011;44771;49.982;8.560;2023-02-15T10:21:31;77.05;;;32.88;;
58982;SDS011;44771;49.982;8.560;2023-02-15T10:26:43;77.45;;;31.10;;
58982;SDS011;44771;49.982;8.560;2023-02-15T10:31:47;85.30;;;33.60;;
58982;SDS011;44771;49.982;8.560;2023-02-15T10:42:04;76.82;;;32.50;;
58982;SDS011;44771;49.982;8.560;2023-02-15T10:47:25;77.35;;;32.05;;
58982;SDS011;44771;49.982;8.560;2023-02-15T10:52:43;73.47;;;32.00;;
58982;SDS011;44771;49.982;8.560;2023-02-15T10:57:58;70.70;;;33.17;;
58982;SDS011;44771;49.982;8.560;2023-02-15T11:03:24;87.53;;;33.50;;
58982;SDS011;44771;49.982;8.560;2023-02-15T11:08:36;82.72;;;32.45;;
58982;SDS011;44771;49.982;8.560;2023-02-15T11:13:46;82.72;;;33.85;;
58982;SDS011;44771;49.982;8.560;2023-02-15T11:18:52;87.32;;;33.67;;
58982;SDS011;44771;49.982;8.560;2023-02-15T11:23:57;93.85;;;34.88;;
58982;SDS011;44771;49.982;8.560;2023-02-15T11:29:07;90.03;;;35.42;;
58982;SDS011;44771;49.982;8.560;2023-02-15T11:34:17;99.78;;;36.63;;
58982;SDS011;44771;49.982;8.560;2023-02-15T11:39:23;98.72;;;35.75;;
58982;SDS011;44771;49.982;8.560;2023-02-15T11:44:30;90.80;;;35.03;;
58982;SDS011;44771;49.982;8.560;2023-02-15T11:49:35;94.87;;;36.72;;
58982;SDS011;44771;49.982;8.560;2023-02-15T11:54:40;83.70;;;36.03;;
58982;SDS011;44771;49.982;8.560;2023-02-15T11:59:46;102.72;;;38.22;;
58982;SDS011;44771;49.982;8.560;2023-02-15T12:04:52;105.12;;;37.17;;
58982;SDS011;44771;49.982;8.560;2023-02-15T12:10:00;84.87;;;37.30;;
58982;SDS011;44771;49.982;8.560;2023-02-15T12:15:07;97.20;;;37.00;;
58982;SDS011;44771;49.982;8.560;2023-02-15T12:20:20;91.78;;;34.97;;
58982;SDS011;44771;49.982;8.560;2023-02-15T12:25:26;80.82;;;33.35;;
58982;SDS011;44771;49.982;8.560;2023-02-15T12:30:35;86.97;;;35.35;;
58982;SDS011;44771;49.982;8.560;2023-02-15T12:35:38;92.12;;;36.42;;
58982;SDS011;44771;49.982;8.560;2023-02-15T12:40:40;79.87;;;34.47;;
58982;SDS011;44771;49.982;8.560;2023-02-15T12:51:24;87.45;;;35.50;;
58982;SDS011;44771;49.982;8.560;2023-02-15T12:56:34;96.28;;;36.30;;
58982;SDS011;44771;49.982;8.560;2023-02-15T13:01:36;103.00;;;35.92;;
58982;SDS011;44771;49.982;8.560;2023-02-15T13:06:45;103.80;;;39.35;;
58982;SDS011;44771;49.982;8.560;2023-02-15T13:11:49;114.57;;;42.45;;
58982;SDS011;44771;49.982;8.560;2023-02-15T13:16:51;106.70;;;38.05;;
58982;SDS011;44771;49.982;8.560;2023-02-15T13:21:59;111.22;;;42.15;;
58982;SDS011;44771;49.982;8.560;2023-02-15T13:27:03;113.05;;;41.95;;
58982;SDS011;44771;49.982;8.560;2023-02-15T13:32:21;116.68;;;42.00;;
58982;SDS011;44771;49.982;8.560;2023-02-15T13:37:34;118.10;;;43.28;;
58982;SDS011;44771;49.982;8.560;2023-02-15T13:43:20;119.05;;;41.97;;
58982;SDS011;44771;49.982;8.560;2023-02-15T13:48:34;117.43;;;40.57;;
58982;SDS011;44771;49.982;8.560;2023-02-15T13:54:05;110.25;;;39.33;;
58982;SDS011;44771;49.982;8.560;2023-02-15T13:59:33;120.22;;;44.60;;
58982;SDS011;44771;49.982;8.560;2023-02-15T14:04:58;119.87;;;43.00;;
58982;SDS011;44771;49.982;8.560;2023-02-15T14:10:23;115.93;;;44.05;;
58982;SDS011;44771;49.982;8.560;2023-02-15T14:15:35;121.05;;;43.13;;
58982;SDS011;44771;49.982;8.560;2023-02-15T14:20:49;115.70;;;43.20;;
58982;SDS011;44771;49.982;8.560;2023-02-15T14:26:01;107.22;;;41.22;;
58982;SDS011;44771;49.982;8.560;2023-02-15T14:31:08;109.50;;;40.90;;
58982;SDS011;44771;49.982;8.560;2023-02-15T14:36:13;111.47;;;44.58;;
58982;SDS011;44771;49.982;8.560;2023-02-15T14:41:21;117.22;;;41.05;;
58982;SDS011;44771;49.982;8.560;2023-02-15T14:46:30;121.05;;;42.35;;
58982;SDS011;44771;49.982;8.560;2023-02-15T14:51:55;108.32;;;42.62;;
58982;SDS011;44771;49.982;8.560;2023-02-15T15:02:26;116.28;;;43.17;;
58982;SDS011;44771;49.982;8.560;2023-02-15T15:07:42;123.17;;;44.33;;
58982;SDS011;44771;49.982;8.560;2023-02-15T15:12:48;117.93;;;44.17;;
58982;SDS011;44771;49.982;8.560;2023-02-15T15:17:52;112.35;;;43.22;;
58982;SDS011;44771;49.982;8.560;2023-02-15T15:28:59;104.80;;;39.60;;
58982;SDS011;44771;49.982;8.560;2023-02-15T15:45:38;113.30;;;41.30;;
58982;SDS011;44771;49.982;8.560;2023-02-15T15:51:03;119.05;;;46.40;;
58982;SDS011;44771;49.982;8.560;2023-02-15T15:56:09;114.50;;;44.70;;
58982;SDS011;44771;49.982;8.560;2023-02-15T16:01:21;111.80;;;42.70;;
58982;SDS011;44771;49.982;8.560;2023-02-15T16:06:31;116.22;;;44.00;;
58982;SDS011;44771;49.982;8.560;2023-02-15T16:11:35;121.35;;;45.85;;
58982;SDS011;44771;49.982;8.560;2023-02-15T16:16:39;116.10;;;44.20;;
58982;SDS011;44771;49.982;8.560;2023-02-15T16:21:42;119.37;;;44.30;;
58982;SDS011;44771;49.982;8.560;2023-02-15T16:26:56;118.07;;;46.78;;
58982;SDS011;44771;49.982;8.560;2023-02-15T16:32:19;119.97;;;46.35;;
58982;SDS011;44771;49.982;8.560;2023-02-15T16:37:21;105.25;;;43.33;;
58982;SDS011;44771;49.982;8.560;2023-02-15T16:42:25;111.53;;;46.75;;
58982;SDS011;44771;49.982;8.560;2023-02-15T16:47:29;121.07;;;45.58;;
58982;SDS011;44771;49.982;8.560;2023-02-15T16:52:34;102.10;;;43.33;;
58982;SDS011;44771;49.982;8.560;2023-02-15T16:57:36;105.22;;;44.30;;
58982;SDS011;44771;49.982;8.560;2023-02-15T17:02:53;116.35;;;45.20;;
58982;SDS011;44771;49.982;8.560;2023-02-15T17:13:17;106.28;;;43.50;;
58982;SDS011;44771;49.982;8.560;2023-02-15T17:18:21;113.45;;;43.03;;
58982;SDS011;44771;49.982;8.560;2023-02-15T17:23:25;121.10;;;48.50;;
58982;SDS011;44771;49.982;8.560;2023-02-15T17:28:30;115.37;;;45.50;;
58982;SDS011;44771;49.982;8.560;2023-02-15T17:33:36;120.50;;;45.78;;
58982;SDS011;44771;49.982;8.560;2023-02-15T17:38:39;123.97;;;48.67;;
58982;SDS011;44771;49.982;8.560;2023-02-15T17:44:00;135.02;;;48.65;;
58982;SDS011;44771;49.982;8.560;2023-02-15T17:49:04;122.50;;;46.83;;
58982;SDS011;44771;49.982;8.560;2023-02-15T17:54:07;116.50;;;43.45;;
58982;SDS011;44771;49.982;8.560;2023-02-15T17:59:10;110.03;;;43.80;;
58982;SDS011;44771;49.982;8.560;2023-02-15T18:04:13;127.35;;;46.22;;
58982;SDS011;44771;49.982;8.560;2023-02-15T18:09:17;109.67;;;42.67;;
58982;SDS011;44771;49.982;8.560;2023-02-15T18:14:19;131.63;;;46.63;;
58982;SDS011;44771;49.982;8.560;2023-02-15T18:19:23;127.05;;;45.22;;
58982;SDS011;44771;49.982;8.560;2023-02-15T18:24:26;126.57;;;45.47;;
58982;SDS011;44771;49.982;8.560;2023-02-15T18:29:28;119.53;;;44.78;;
58982;SDS011;44771;49.982;8.560;2023-02-15T18:34:32;112.32;;;44.65;;
58982;SDS011;44771;49.982;8.560;2023-02-15T18:39:36;108.47;;;43.00;;
58982;SDS011;44771;49.982;8.560;2023-02-15T18:44:40;114.10;;;42.08;;
58982;SDS011;44771;49.982;8.560;2023-02-15T18:49:46;116.43;;;44.37;;
58982;SDS011;44771;49.982;8.560;2023-02-15T18:54:54;121.70;;;44.15;;
58982;SDS011;44771;49.982;8.560;2023-02-15T18:59:59;116.88;;;45.03;;
58982;SDS011;44771;49.982;8.560;2023-02-15T19:05:02;131.27;;;47.17;;
58982;SDS011;44771;49.982;8.560;2023-02-15T19:10:04;139.98;;;51.28;;
58982;SDS011;44771;49.982;8.560;2023-02-15T19:15:12;131.75;;;46.22;;
58982;SDS011;44771;49.982;8.560;2023-02-15T19:20:17;126.00;;;45.35;;
58982;SDS011;44771;49.982;8.560;2023-02-15T19:25:21;137.50;;;47.25;;
58982;SDS011;44771;49.982;8.560;2023-02-15T19:30:26;137.62;;;49.40;;
58982;SDS011;44771;49.982;8.560;2023-02-15T19:35:33;129.95;;;48.05;;
58982;SDS011;44771;49.982;8.560;2023-02-15T19:40:35;124.60;;;44.72;;
58982;SDS011;44771;49.982;8.560;2023-02-15T19:45:37;121.25;;;45.30;;
58982;SDS011;44771;49.982;8.560;2023-02-15T19:50:40;126.00;;;46.17;;
58982;SDS011;44771;49.982;8.560;2023-02-15T19:55:42;135.48;;;49.70;;
58982;SDS011;44771;49.982;8.560;2023-02-15T20:00:44;151.00;;;49.92;;
58982;SDS011;44771;49.982;8.560;2023-02-15T20:05:54;145.02;;;49.67;;
58982;SDS011;44771;49.982;8.560;2023-02-15T20:10:59;125.87;;;45.45;;
58982;SDS011;44771;49.982;8.560;2023-02-15T20:21:55;135.63;;;48.20;;
58982;SDS011;44771;49.982;8.560;2023-02-15T20:26:58;132.23;;;48.47;;
58982;SDS011;44771;49.982;8.560;2023-02-15T20:32:08;144.50;;;49.25;;
58982;SDS011;44771;49.982;8.560;2023-02-15T20:52:57;139.68;;;47.55;;
58982;SDS011;44771;49.982;8.560;2023-02-15T20:58:22;141.75;;;47.92;;
58982;SDS011;44771;49.982;8.560;2023-02-15T21:14:48;153.32;;;48.15;;
58982;SDS011;44771;49.982;8.560;2023-02-15T21:19:50;139.35;;;46.95;;
58982;SDS011;44771;49.982;8.560;2023-02-15T21:24:55;149.55;;;44.30;;
58982;SDS011;44771;49.982;8.560;2023-02-15T21:30:08;143.32;;;46.00;;
58982;SDS011;44771;49.982;8.560;2023-02-15T21:35:15;146.90;;;45.00;;
58982;SDS011;44771;49.982;8.560;2023-02-15T21:40:19;136.15;;;47.85;;
58982;SDS011;44771;49.982;8.560;2023-02-15T21:45:23;125.00;;;44.83;;
58982;SDS011;44771;49.982;8.560;2023-02-15T21:50:25;135.25;;;46.65;;
58982;SDS011;44771;49.982;8.560;2023-02-15T21:55:27;145.82;;;46.85;;
58982;SDS011;44771;49.982;8.560;2023-02-15T22:00:32;144.48;;;47.90;;
58982;SDS011;44771;49.982;8.560;2023-02-15T22:05:34;127.50;;;44.45;;
58982;SDS011;44771;49.982;8.560;2023-02-15T22:10:36;156.40;;;47.60;;
58982;SDS011;44771;49.982;8.560;2023-02-15T22:15:39;170.02;;;50.35;;
58982;SDS011;44771;49.982;8.560;2023-02-15T22:20:41;149.60;;;48.47;;
58982;SDS011;44771;49.982;8.560;2023-02-15T22:25:44;158.18;;;51.25;;
58982;SDS011;44771;49.982;8.560;2023-02-15T22:30:51;146.30;;;50.28;;
58982;SDS011;44771;49.982;8.560;2023-02-15T22:35:53;150.52;;;48.75;;
58982;SDS011;44771;49.982;8.560;2023-02-15T22:40:56;157.77;;;49.53;;
58982;SDS011;44771;49.982;8.560;2023-02-15T22:46:03;157.02;;;47.33;;
58982;SDS011;44771;49.982;8.560;2023-02-15T22:51:08;167.18;;;51.33;;
58982;SDS011;44771;49.982;8.560;2023-02-15T22:56:14;177.82;;;51.08;;
58982;SDS011;44771;49.982;8.560;2023-02-15T23:01:22;167.07;;;48.00;;
58982;SDS011;44771;49.982;8.560;2023-02-15T23:06:29;171.18;;;49.65;;
58982;SDS011;44771;49.982;8.560;2023-02-15T23:11:31;162.62;;;48.00;;
58982;SDS011;44771;49.982;8.560;2023-02-15T23:16:34;145.87;;;48.42;;
58982;SDS011;44771;49.982;8.560;2023-02-15T23:21:36;175.07;;;50.47;;
58982;SDS011;44771;49.982;8.560;2023-02-15T23:26:38;157.27;;;47.80;;
58982;SDS011;44771;49.982;8.560;2023-02-15T23:31:42;180.73;;;49.55;;
58982;SDS011;44771;49.982;8.560;2023-02-15T23:36:45;158.25;;;46.80;;
58982;SDS011;44771;49.982;8.560;2023-02-15T23:41:47;163.85;;;48.10;;
58982;SDS011;44771;49.982;8.560;2023-02-15T23:46:50;140.68;;;43.78;;
58982;SDS011;44771;49.982;8.560;2023-02-15T23:51:52;146.68;;;47.58;;
58982;SDS011;44771;49.982;8.560;2023-02-15T23:56:56;161.05;;;49.97;;
